Time;durP1;ratioP1;P1;durP2;ratioP2;P2;SDS_P1;SDS_P2;PMS_P1;PMS_P2;Temp;Humidity;BMP_temperature;BMP_pressure;BME280_temperature;BME280_humidity;BME280_pressure;Samples;Min_cycle;Max_cycle;Signal;HPM_P1;HPM_P2
2023/06/09 08:57:23;;;;;;;11.60;6.13;;;;;;;22.11;59.24;101225.56;5014703;28;20429;-70
2023/06/09 08:59:50;;;;;;;9.48;5.97;;;;;;;22.15;57.99;101224.97;5010075;28;20038;-68
2023/06/09 09:02:15;;;;;;;14.27;6.80;;;;;;;22.31;57.19;101226.47;5020595;28;20048;-68
2023/06/09 09:04:41;;;;;;;13.07;6.50;;;;;;;22.48;58.18;101218.53;5029750;28;20033;-67
2023/06/09 09:07:08;;;;;;;16.88;6.55;;;;;;;22.66;59.75;101224.34;5030479;28;20030;-70
2023/06/09 09:09:37;;;;;;;11.80;7.25;;;;;;;22.74;58.38;101220.13;5046919;28;20044;-71
2023/06/09 09:12:02;;;;;;;12.18;6.07;;;;;;;22.80;56.85;101221.69;5049719;28;20036;-69
2023/06/09 09:14:28;;;;;;;10.32;5.95;;;;;;;22.98;56.10;101220.03;5049929;28;20033;-68
2023/06/09 09:16:53;;;;;;;14.65;7.00;;;;;;;22.92;53.51;101218.47;5038429;28;20030;-68
2023/06/09 09:19:26;;;;;;;13.82;6.40;;;;;;;23.03;55.18;101208.91;5029669;28;20084;-68
2023/06/09 09:21:55;;;;;;;12.55;5.97;;;;;;;23.09;56.07;101212.41;5029326;28;20041;-70
2023/06/09 09:24:20;;;;;;;11.07;7.10;;;;;;;23.11;55.11;101202.72;5009478;28;20431;-71
2023/06/09 09:26:46;;;;;;;14.88;7.20;;;;;;;23.16;55.16;101210.94;5026860;28;20034;-70
2023/06/09 09:29:11;;;;;;;11.65;6.35;;;;;;;23.21;53.47;101212.78;5028776;28;20034;-70
2023/06/09 09:31:41;;;;;;;11.00;6.63;;;;;;;23.23;52.70;101209.72;5029281;28;20037;-69
2023/06/09 09:34:13;;;;;;;13.82;6.35;;;;;;;23.31;53.10;101203.50;5029454;28;20030;-69
2023/06/09 09:36:45;;;;;;;9.90;6.00;;;;;;;23.38;52.68;101195.63;5026470;28;20056;-70
2023/06/09 09:39:11;;;;;;;11.05;6.35;;;;;;;23.49;53.12;101196.28;5029068;28;20037;-67
2023/06/09 09:41:36;;;;;;;8.68;5.88;;;;;;;23.63;53.07;101201.84;5029066;28;20551;-65
2023/06/09 09:44:02;;;;;;;13.25;6.55;;;;;;;23.74;52.01;101205.22;5021302;28;20580;-69
2023/06/09 09:46:35;;;;;;;9.02;5.95;;;;;;;23.73;52.06;101190.56;5027347;28;20116;-72
2023/06/09 09:49:01;;;;;;;10.63;5.13;;;;;;;23.92;51.52;101189.72;5027868;28;20033;-71
2023/06/09 09:51:26;;;;;;;10.05;5.90;;;;;;;23.91;51.58;101190.81;5027474;28;20514;-71
2023/06/09 09:53:57;;;;;;;12.40;5.97;;;;;;;23.97;50.20;101190.41;5028828;28;20076;-70
2023/06/09 09:56:23;;;;;;;13.45;6.07;;;;;;;24.07;50.86;101194.91;5028541;28;20049;-73
2023/06/09 09:58:53;;;;;;;10.60;5.82;;;;;;;24.08;50.00;101188.28;5019370;28;20504;-67
2023/06/09 10:01:24;;;;;;;8.82;5.35;;;;;;;24.17;50.08;101183.66;5020267;28;20503;-68
2023/06/09 10:03:53;;;;;;;10.82;6.13;;;;;;;24.19;49.61;101186.91;5028714;28;20026;-67
2023/06/09 10:06:19;;;;;;;10.40;6.05;;;;;;;24.26;48.72;101169.88;5028816;28;20466;-68
2023/06/09 10:08:45;;;;;;;14.20;5.85;;;;;;;24.34;49.02;101179.44;5013477;28;20092;-70
2023/06/09 10:11:12;;;;;;;11.90;5.22;;;;;;;24.46;47.96;101174.16;5012853;28;20044;-69
2023/06/09 10:13:38;;;;;;;8.35;4.90;;;;;;;24.60;48.52;101174.16;5015340;28;20029;-72
2023/06/09 10:16:04;;;;;;;10.82;4.80;;;;;;;24.81;48.74;101168.94;5016354;28;20131;-69
2023/06/09 10:18:29;;;;;;;11.25;5.70;;;;;;;24.92;47.49;101178.63;5011988;28;20030;-74
2023/06/09 10:20:55;;;;;;;9.18;4.65;;;;;;;25.05;46.04;101174.16;5006068;28;20080;-68
2023/06/09 10:23:21;;;;;;;7.20;4.70;;;;;;;24.99;44.83;101180.97;5015393;28;20049;-74
2023/06/09 10:25:50;;;;;;;7.40;4.78;;;;;;;25.09;45.91;101179.88;5014788;28;20038;-73
2023/06/09 10:28:17;;;;;;;11.77;4.85;;;;;;;25.21;45.01;101180.16;5015224;28;20112;-69
2023/06/09 10:30:43;;;;;;;9.63;5.10;;;;;;;25.20;44.75;101169.34;5013925;28;20095;-71
2023/06/09 10:33:16;;;;;;;11.88;6.20;;;;;;;25.39;45.57;101178.28;5006531;28;20096;-69
2023/06/09 10:35:44;;;;;;;9.20;4.13;;;;;;;25.56;44.81;101172.03;4995439;28;20030;-72
2023/06/09 10:38:21;;;;;;;11.98;4.70;;;;;;;25.60;44.75;101175.78;4995611;28;20117;-73
2023/06/09 10:40:52;;;;;;;10.18;4.93;;;;;;;25.64;43.76;101174.03;5003988;28;20114;-71
2023/06/09 10:43:40;;;;;;;9.27;4.60;;;;;;;25.75;44.65;101169.00;5013852;28;20117;-74
2023/06/09 10:46:05;;;;;;;9.02;4.68;;;;;;;25.85;43.71;101173.47;5013248;28;20037;-70
2023/06/09 10:48:44;;;;;;;7.90;5.15;;;;;;;26.04;43.58;101164.06;5014873;28;20029;-76
2023/06/09 10:51:28;;;;;;;8.23;5.00;;;;;;;26.13;43.91;101159.34;5007769;28;20037;-72
2023/06/09 10:54:15;;;;;;;9.15;4.80;;;;;;;26.15;42.73;101160.69;4993697;28;20034;-71
2023/06/09 10:56:42;;;;;;;8.30;4.57;;;;;;;26.31;42.39;101163.78;4994834;28;20129;-73
2023/06/09 10:59:25;;;;;;;10.40;5.40;;;;;;;26.26;42.94;101155.63;4995100;28;20037;-72
2023/06/09 11:02:03;;;;;;;9.65;5.18;;;;;;;26.29;42.73;101151.41;5009057;28;20583;-73
2023/06/09 11:04:46;;;;;;;10.77;5.10;;;;;;;26.50;43.25;101154.34;5012142;28;20033;-70
2023/06/09 11:07:14;;;;;;;10.20;4.82;;;;;;;26.67;41.86;101154.38;5008521;28;20069;-70
2023/06/09 11:10:00;;;;;;;12.48;4.88;;;;;;;26.71;40.25;101143.44;5012901;28;20033;-70
2023/06/09 11:12:29;;;;;;;9.43;4.40;;;;;;;26.74;39.81;101148.34;5013546;28;20045;-70
2023/06/09 11:14:56;;;;;;;8.10;4.68;;;;;;;26.84;39.14;101149.94;5014152;28;20457;-71
2023/06/09 11:17:26;;;;;;;6.70;4.60;;;;;;;26.83;39.69;101154.69;5014162;28;20385;-70
2023/06/09 11:19:52;;;;;;;8.52;4.50;;;;;;;26.99;40.49;101143.06;5012216;28;20485;-70
2023/06/09 11:22:18;;;;;;;8.48;4.65;;;;;;;27.10;39.59;101140.75;4997116;28;20033;-71
2023/06/09 11:24:51;;;;;;;10.43;4.57;;;;;;;27.11;40.74;101145.16;4994403;28;20027;-70
2023/06/09 11:27:23;;;;;;;11.00;5.10;;;;;;;27.20;41.25;101143.19;5004855;28;20111;-71
2023/06/09 11:30:08;;;;;;;10.77;5.40;;;;;;;27.21;41.27;101142.03;5013937;28;20038;-70
2023/06/09 11:32:45;;;;;;;10.18;5.32;;;;;;;27.33;41.67;101136.63;5013045;28;20030;-70
2023/06/09 11:35:31;;;;;;;8.85;5.55;;;;;;;27.28;40.81;101135.97;5010070;28;20474;-71
2023/06/09 11:37:57;;;;;;;9.25;4.90;;;;;;;27.42;40.63;101136.59;4992925;28;20085;-71
2023/06/09 11:40:23;;;;;;;12.35;5.32;;;;;;;27.37;40.32;101134.81;5000437;28;20049;-70
2023/06/09 11:42:50;;;;;;;11.55;5.43;;;;;;;27.45;40.09;101127.59;5004257;28;20056;-71
2023/06/09 11:45:15;;;;;;;9.13;5.40;;;;;;;27.49;39.75;101127.75;5003569;28;20034;-70
2023/06/09 11:47:42;;;;;;;9.68;5.00;;;;;;;27.53;38.24;101128.72;4997938;28;20110;-72
2023/06/09 11:50:12;;;;;;;9.00;4.70;;;;;;;27.57;38.45;101124.94;4994191;28;20038;-70
2023/06/09 11:52:40;;;;;;;11.25;5.10;;;;;;;27.74;39.64;101124.00;4993856;28;20030;-71
2023/06/09 11:55:05;;;;;;;10.98;6.10;;;;;;;27.81;38.93;101120.72;4999070;28;20116;-70
2023/06/09 11:57:32;;;;;;;8.18;4.65;;;;;;;28.00;40.20;101103.59;5013370;28;20037;-70
2023/06/09 11:59:57;;;;;;;7.13;4.80;;;;;;;28.06;38.30;101105.03;5013398;28;20029;-70
2023/06/09 12:02:25;;;;;;;6.55;4.55;;;;;;;28.21;37.85;101117.53;5009374;28;20807;-70
2023/06/09 12:04:50;;;;;;;7.53;4.80;;;;;;;28.25;37.28;101115.69;5012035;28;20058;-70
2023/06/09 12:07:17;;;;;;;9.77;5.80;;;;;;;28.15;37.77;101116.09;5008385;28;20109;-71
2023/06/09 12:09:43;;;;;;;11.13;5.30;;;;;;;28.25;38.21;101114.91;4998451;28;20040;-69
2023/06/09 12:12:09;;;;;;;9.40;5.47;;;;;;;28.25;37.60;101114.91;5015435;28;20030;-71
2023/06/09 12:14:35;;;;;;;6.78;4.93;;;;;;;28.24;37.29;101104.91;5004404;28;20472;-73
2023/06/09 12:17:01;;;;;;;8.30;5.00;;;;;;;28.27;37.29;101096.69;5011877;28;20053;-71
2023/06/09 12:19:28;;;;;;;8.48;4.90;;;;;;;28.39;38.17;101111.84;5009956;28;20068;-75
2023/06/09 12:21:54;;;;;;;10.98;4.57;;;;;;;28.54;36.35;101113.19;5012299;28;20038;-73
2023/06/09 12:24:20;;;;;;;6.35;4.38;;;;;;;28.55;36.41;101106.44;5012953;28;20026;-73
2023/06/09 12:26:47;;;;;;;9.02;4.50;;;;;;;28.63;35.99;101103.59;5012903;28;20045;-72
2023/06/09 12:29:13;;;;;;;8.23;4.38;;;;;;;28.69;34.94;101107.00;5012098;28;20034;-70
2023/06/09 12:31:47;;;;;;;6.35;4.28;;;;;;;28.67;35.63;101098.19;5011458;28;20036;-74
2023/06/09 12:34:24;;;;;;;10.50;4.50;;;;;;;28.78;35.46;101093.00;5003625;28;20470;-73
2023/06/09 12:36:49;;;;;;;7.00;4.28;;;;;;;28.83;35.37;101083.59;4993162;28;20030;-72
2023/06/09 12:39:20;;;;;;;9.23;4.20;;;;;;;28.95;35.17;101090.00;4994934;28;20480;-73
2023/06/09 12:41:45;;;;;;;8.18;4.22;;;;;;;29.04;34.52;101089.09;5003283;28;20034;-71
2023/06/09 12:44:19;;;;;;;4.60;3.60;;;;;;;29.28;34.95;101100.31;5011634;28;20523;-71
2023/06/09 12:46:44;;;;;;;9.55;3.78;;;;;;;29.33;33.32;101090.91;5012755;28;20033;-72
2023/06/09 12:49:10;;;;;;;8.82;3.67;;;;;;;29.45;34.32;101092.88;5010157;28;20370;-72
2023/06/09 12:51:37;;;;;;;12.52;3.95;;;;;;;29.43;32.72;101084.88;5003311;28;20076;-70
2023/06/09 12:54:04;;;;;;;5.38;3.40;;;;;;;29.55;33.52;101077.66;5011135;28;20025;-71
2023/06/09 12:56:31;;;;;;;6.82;3.80;;;;;;;29.73;32.96;101086.59;5012297;28;20046;-70
2023/06/09 12:58:57;;;;;;;4.45;3.47;;;;;;;29.67;33.40;101077.66;5012219;28;20485;-73
2023/06/09 13:01:25;;;;;;;5.75;3.83;;;;;;;29.62;32.97;101075.94;5020427;28;20112;-71
2023/06/09 13:03:51;;;;;;;4.88;3.60;;;;;;;29.74;32.13;101082.66;5028903;28;20091;-71
2023/06/09 13:06:16;;;;;;;5.57;3.60;;;;;;;29.71;31.80;101084.16;5032449;28;20029;-70
2023/06/09 13:08:42;;;;;;;5.03;3.65;;;;;;;29.67;30.72;101077.66;5032665;28;20112;-71
2023/06/09 13:11:09;;;;;;;4.38;3.22;;;;;;;29.66;31.58;101078.81;5030805;28;20491;-69
2023/06/09 13:13:35;;;;;;;5.53;3.40;;;;;;;29.62;31.38;101078.72;5032109;28;20044;-74
2023/06/09 13:16:00;;;;;;;3.90;3.40;;;;;;;29.80;32.28;101062.56;5030995;28;20037;-71
2023/06/09 13:18:25;;;;;;;5.13;3.80;;;;;;;29.90;32.64;101068.84;5031477;28;20029;-72
2023/06/09 13:20:51;;;;;;;6.00;3.50;;;;;;;30.09;31.96;101071.81;5031696;28;20449;-70
2023/06/09 13:23:17;;;;;;;4.63;3.30;;;;;;;30.03;32.65;101062.88;5032046;28;20045;-70
2023/06/09 13:25:42;;;;;;;6.00;3.70;;;;;;;30.15;31.66;101075.97;5030969;28;20111;-71
2023/06/09 13:28:09;;;;;;;7.13;3.80;;;;;;;30.12;31.10;101070.28;5032067;28;20025;-74
2023/06/09 13:30:38;;;;;;;5.70;3.67;;;;;;;30.31;32.48;101070.44;5030889;28;20821;-74
2023/06/09 13:33:09;;;;;;;5.57;3.27;;;;;;;30.41;30.89;101080.34;5027682;28;20033;-75
2023/06/09 13:35:36;;;;;;;5.13;3.30;;;;;;;30.40;31.02;101076.72;5018946;28;20076;-74
2023/06/09 13:38:05;;;;;;;7.05;3.50;;;;;;;30.41;30.24;101083.13;5020481;28;20112;-77
2023/06/09 13:40:32;;;;;;;13.38;3.38;;;;;;;30.50;31.03;101081.00;5018458;28;20017;-75
2023/06/09 13:43:15;;;;;;;9.90;3.55;;;;;;;30.49;31.57;101067.38;5024800;28;20034;-76
2023/06/09 13:46:10;;;;;;;4.03;3.30;;;;;;;30.44;31.28;101071.25;5015916;28;20018;-81
2023/06/09 13:48:44;;;;;;;5.75;3.47;;;;;;;30.65;31.17;101067.41;5022348;28;20469;-73
2023/06/09 13:51:13;;;;;;;4.05;3.10;;;;;;;30.68;30.71;101058.31;5034235;28;20032;-74
2023/06/09 13:53:40;;;;;;;3.80;3.35;;;;;;;30.61;30.54;101053.34;5034137;28;20026;-75
2023/06/09 13:56:07;;;;;;;6.22;3.50;;;;;;;30.37;29.79;101062.63;5033517;28;20045;-75
2023/06/09 13:58:36;;;;;;;8.90;3.50;;;;;;;30.23;29.62;101063.03;5030626;28;20041;-75
2023/06/09 14:01:38;;;;;;;6.25;3.25;;;;;;;30.32;31.49;101057.31;5030756;28;20033;-76
2023/06/09 14:04:24;;;;;;;;;;;;;;;;;;;;;
2023/06/09 14:09:57;;;;;;;5.25;3.58;;;;;;;30.68;30.19;101041.56;5046780;28;20076;-74
2023/06/09 14:12:47;;;;;;;6.95;3.30;;;;;;;30.80;29.89;101041.50;5035280;28;20036;-76
2023/06/09 14:15:34;;;;;;;6.30;3.28;;;;;;;30.90;30.59;101035.34;5025075;28;20475;-75
2023/06/09 14:22:00;;;;;;;5.80;3.60;;;;;;;31.12;30.85;101049.91;4992493;28;20030;-77
2023/06/09 14:24:29;;;;;;;6.82;4.10;;;;;;;31.06;30.25;101038.19;5022143;28;20029;-76
2023/06/09 14:26:55;;;;;;;5.13;3.58;;;;;;;31.02;30.05;101034.50;5015879;28;20029;-74
2023/06/09 14:29:20;;;;;;;6.63;3.53;;;;;;;30.80;30.25;101041.50;5014708;28;20034;-74
2023/06/09 14:31:46;;;;;;;10.17;3.50;;;;;;;30.39;29.75;101036.00;5032092;28;20040;-72
2023/06/09 14:34:12;;;;;;;9.93;3.25;;;;;;;30.09;30.13;101038.31;5034505;28;20278;-74
2023/06/09 14:36:38;;;;;;;7.30;3.13;;;;;;;30.20;30.41;101036.63;5034633;28;20022;-72
2023/06/09 14:39:03;;;;;;;6.78;3.13;;;;;;;30.36;29.64;101035.88;5022678;28;20072;-70
2023/06/09 14:41:28;;;;;;;8.50;3.13;;;;;;;30.56;30.14;101029.28;5027294;28;20033;-70
2023/06/09 14:43:54;;;;;;;4.50;3.00;;;;;;;30.73;30.24;101030.13;5030892;28;20022;-75
2023/06/09 14:46:19;;;;;;;5.65;3.40;;;;;;;30.88;29.79;101036.91;5036232;28;20059;-72
2023/06/09 14:48:45;;;;;;;6.90;3.42;;;;;;;31.01;29.46;101032.06;5053911;28;20068;-72
2023/06/09 14:51:11;;;;;;;6.65;3.20;;;;;;;30.95;29.53;101031.50;5053950;28;20041;-71
2023/06/09 14:53:48;;;;;;;5.95;3.30;;;;;;;31.13;29.95;101031.97;5054023;28;20044;-75
2023/06/09 14:56:22;;;;;;;6.55;2.80;;;;;;;31.16;29.49;101014.50;5015868;28;20394;-78
2023/06/09 14:58:48;;;;;;;8.77;3.08;;;;;;;31.17;28.75;101018.88;5034079;28;20041;-78
2023/06/09 15:01:13;;;;;;;4.70;3.10;;;;;;;31.31;29.29;101023.22;5029386;28;20447;-73
2023/06/09 15:07:01;;;;;;;4.25;3.03;;;;;;;31.36;29.71;101006.13;5028015;28;20084;-75
2023/06/09 15:09:26;;;;;;;6.63;3.25;;;;;;;31.35;28.41;101005.34;5031525;28;20044;-73
2023/06/09 15:11:51;;;;;;;5.05;2.92;;;;;;;31.41;28.34;101003.06;5027782;28;20022;-73
2023/06/09 15:14:37;;;;;;;5.93;2.80;;;;;;;31.16;29.84;101010.88;5032937;28;20079;-76
2023/06/09 15:17:02;;;;;;;3.63;2.75;;;;;;;31.12;28.55;101007.16;5033306;28;20037;-73
2023/06/09 15:19:29;;;;;;;7.55;2.90;;;;;;;31.33;28.68;101001.28;5029193;28;20022;-74
2023/06/09 15:21:54;;;;;;;4.38;3.22;;;;;;;31.68;29.35;100992.94;5031731;28;20029;-72
2023/06/09 15:24:19;;;;;;;5.00;2.83;;;;;;;31.65;29.28;100990.88;5031733;28;20091;-74
2023/06/09 15:26:45;;;;;;;6.47;3.00;;;;;;;31.47;28.19;100998.81;5032705;28;20041;-74
2023/06/09 15:29:10;;;;;;;4.95;2.85;;;;;;;31.75;28.68;100987.50;5029300;28;20081;-76
2023/06/09 15:31:53;;;;;;;2.95;2.60;;;;;;;31.85;29.29;100988.88;5017157;28;20025;-76
2023/06/09 15:34:19;;;;;;;3.08;2.78;;;;;;;32.00;28.57;100992.78;5026917;28;20457;-69
2023/06/09 15:36:44;;;;;;;4.72;2.95;;;;;;;32.02;28.00;100989.63;5032134;28;20091;-70
2023/06/09 15:39:11;;;;;;;3.93;3.00;;;;;;;32.04;27.35;100988.09;5019010;28;20046;-69
2023/06/09 15:41:36;;;;;;;7.40;2.83;;;;;;;32.10;27.18;100991.41;5013920;28;20762;-72
2023/06/09 15:44:02;;;;;;;3.13;2.78;;;;;;;32.06;27.21;100987.72;5014712;28;20097;-71
2023/06/09 15:46:28;;;;;;;5.78;2.75;;;;;;;32.23;27.70;100984.47;5029145;28;20457;-69
2023/06/09 15:48:55;;;;;;;4.00;2.60;;;;;;;32.28;27.50;100981.38;5031754;28;20087;-69
2023/06/09 15:51:21;;;;;;;7.78;3.10;;;;;;;32.74;26.72;100975.00;5033317;28;20030;-70
2023/06/09 15:53:46;;;;;;;4.05;2.83;;;;;;;33.20;25.67;100985.38;5033213;28;20362;-69
2023/06/09 15:56:11;;;;;;;5.50;2.60;;;;;;;33.63;25.17;100977.59;5032273;28;20073;-68
2023/06/09 15:58:37;;;;;;;4.03;2.45;;;;;;;34.03;25.10;100981.72;5015925;28;20461;-69
2023/06/09 16:01:02;;;;;;;6.63;2.93;;;;;;;34.01;25.05;100975.66;5014809;28;20554;-68
2023/06/09 16:03:27;;;;;;;2.70;2.47;;;;;;;33.64;24.57;100967.16;5028199;28;20296;-72
2023/06/09 16:05:54;;;;;;;6.80;2.80;;;;;;;33.14;26.14;100965.25;5032739;28;20022;-70
